Updated23/05/2019 5:58am 
 

Nearby Airport METAR Reports

 

KVSF - Springfield, Vermont, USA
Distance from station: WSW 8mi, 12km
Updated: 05/23/2019 5:54am
Overcast
Overcast
 Wind from calm
Wind: Calm
Temperature: 48°F , 9°C
Dew Point: 46°F , 8°C
Humidity: 94%
Barometer: 30.19 inHg , 1022.4 hPa
Clouds: Overcast
Visibility: 10 miles , 16 km
Cloud details: Overcast 9000 ft
2019/05/23 09:54 KVSF 230954Z AUTO 00000KT 10SM OVC090 09/08 A3019 RMK AO2 SLP223 T00940078
KLEB - Lebanon, New Hampshire, USA
Distance from station: N 18mi, 29km
Updated: 05/23/2019 5:53am
Mostly cloudy
Mostly cloudy
 Wind from SE
Wind: SE 3 mph , 6 km/h
Temperature: 50°F , 10°C
Dew Point: 45°F , 7°C
Humidity: 82%
Barometer: 30.16 inHg , 1021.3 hPa
Clouds: Mostly cloudy
Visibility: 10 miles , 16 km
Cloud details: Mostly cloudy 9000 ft
2019/05/23 09:53 KLEB 230953Z AUTO 14003KT 10SM BKN090 10/07 A3016 RMK AO2 SLP209 T01000067
KRUT - Rutland State, Vermont, USA
Distance from station: WNW 31mi, 50km
Updated: 05/23/2019 5:56am
Overcast
Overcast
 Wind from SE
Wind: SE 14 mph , 22 km/h
Temperature: 55°F , 13°C
Dew Point: 39°F , 4°C
Humidity: 55%
Barometer: 30.13 inHg , 1020.3 hPa
Clouds: Overcast
Visibility: 10 miles , 16 km
Cloud details: Overcast 5500 ft
2019/05/23 09:56 KRUT 230956Z AUTO 13012KT 10SM OVC055 13/04 A3013 RMK AO2 SLP199 T01330044 $
 
KEEN - Keene/Dillant, New Hampshire, USA
Distance from station: S 34mi, 55km
Updated: 05/23/2019 5:56am
Overcast
Overcast
 Wind from S
Wind: S 5 mph , 7 km/h
Temperature: 52°F , 11°C
Dew Point: 45°F , 7°C
Humidity: 77%
Barometer: 30.20 inHg , 1022.7 hPa
Clouds: Overcast
Visibility: 10 miles , 16 km
Cloud details: Overcast 8000 ft
2019/05/23 09:56 KEEN 230956Z AUTO 18004KT 10SM OVC080 11/07 A3020 RMK AO2 SLP230 T01110072 PNO $
K1P1 - Plymouth, New Hampshire, USA
Distance from station: NE 42mi, 67km
Updated: 05/23/2019 5:55am
Overcast
Overcast
 Wind from calm
Wind: Calm
Temperature: 50°F , 10°C
Dew Point: 45°F , 7°C
Humidity: 82%
Barometer: 30.20 inHg , 1022.7 hPa
Clouds: Overcast
Visibility: 10 miles , 16 km
Cloud details: Overcast 9000 ft
2019/05/23 09:55 K1P1 230955Z AUTO 00000KT 10SM OVC090 10/07 A3020 RMK AO2 T00970071
KAFN - Jaffrey, New Hampshire, USA
Distance from station: SSE 44mi, 70km
Updated: 05/23/2019 5:52am
Overcast
Overcast
 Wind from S
Wind: S 6 mph , 9 km/h
Temperature: 52°F , 11°C
Dew Point: 45°F , 7°C
Humidity: 77%
Barometer: 30.21 inHg , 1023 hPa
Clouds: Overcast
Visibility: 10 miles , 16 km
Cloud details: Overcast 8000 ft
2019/05/23 09:52 KAFN 230952Z AUTO 19005KT 10SM OVC080 11/07 A3021 RMK AO2 SLP233 T01060067
 
KCON - Concord, New Hampshire, USA
Distance from station: ESE 45mi, 73km
Updated: 05/23/2019 5:51am
Overcast
Overcast
 Wind from SSE
Wind: SSE 6 mph , 9 km/h
Temperature: 52°F , 11°C
Dew Point: 43°F , 6°C
Humidity: 72%
Barometer: 30.21 inHg , 1023 hPa
Clouds: Overcast
Visibility: 10 miles , 16 km
Cloud details: Overcast 9500 ft
2019/05/23 09:51 KCON 230951Z AUTO 16005KT 10SM OVC095 11/06 A3021 RMK AO2 SLP230 T01060061
KLCI - Laconia Muni, New Hampshire, USA
Distance from station: ENE 49mi, 80km
Updated: 05/23/2019 5:56am
Overcast
Overcast
 Wind from SW
Wind: SW 6 mph , 9 km/h
Temperature: 52°F , 11°C
Dew Point: 45°F , 7°C
Humidity: 77%
Barometer: 30.20 inHg , 1022.7 hPa
Clouds: Overcast
Visibility: 10 miles , 16 km
Cloud details: Overcast 8000 ft
2019/05/23 09:56 KLCI 230956Z AUTO 23005KT 10SM OVC080 11/07 A3020 RMK AO2 SLP229 T01110067
KDDH - Bennington, Vermont, USA
Distance from station: SW 55mi, 89km
Updated: 05/23/2019 5:54am
Overcast
Overcast
 Wind from calm
Wind: Calm
Temperature: 52°F , 11°C
Dew Point: 45°F , 7°C
Humidity: 77%
Barometer: 30.15 inHg , 1021 hPa
Clouds: Overcast
Visibility: 10 miles , 16 km
Cloud details: Mostly cloudy 6000 ft
Overcast 8000 ft
2019/05/23 09:54 KDDH 230954Z AUTO 00000KT 10SM BKN060 OVC080 11/07 A3015 RMK AO2 SLP208 T01110072
 
K6B0 - Middlebury, Vermont, USA
Distance from station: NW 56mi, 90km
Updated: 05/23/2019 5:55am
Overcast
Overcast
 Wind from calm
Wind: Calm
Temperature: 52°F , 11°C
Dew Point: 46°F , 8°C
Humidity: 82%
Barometer: 30.11 inHg , 1019.6 hPa
Clouds: Overcast
Visibility: 10 miles , 16 km
Cloud details: Overcast 6000 ft
2019/05/23 09:55 K6B0 230955Z AUTO 00000KT 10SM OVC060 11/08 A3011 RMK AO2 T01090076
KMHT - Manchester, New Hampshire, USA
Distance from station: ESE 56mi, 90km
Updated: 05/23/2019 5:53am
Mostly cloudy
Mostly cloudy
 Wind from S
Wind: S 5 mph , 7 km/h
Temperature: 54°F , 12°C
Dew Point: 41°F , 5°C
Humidity: 63%
Barometer: 30.21 inHg , 1023 hPa
Clouds: Mostly cloudy
Visibility: 10 miles , 16 km
Cloud details: Mostly cloudy 9000 ft
Mostly cloudy 25000 ft
2019/05/23 09:53 KMHT 230953Z 18004KT 10SM BKN090 BKN250 12/05 A3021 RMK AO2 SLP240 T01170050
KORE - Orange, Massachusetts, USA
Distance from station: S 56mi, 90km
Updated: 05/23/2019 5:52am
Overcast
Overcast
 Wind from SSE
Wind: SSE 6 mph , 9 km/h
Temperature: 54°F , 12°C
Dew Point: 45°F , 7°C
Humidity: 72%
Barometer: 30.20 inHg , 1022.7 hPa
Clouds: Overcast
Visibility: 10 miles , 16 km
Cloud details: Overcast 7500 ft
2019/05/23 09:52 KORE 230952Z AUTO 15005KT 10SM OVC075 12/07 A3020 RMK AO2 SLP227 T01170072
 
KMPV - Montpelier/Barre, Vermont, USA
Distance from station: N 58mi, 93km
Updated: 05/23/2019 5:51am
Few Clouds
Few Clouds
 Wind from SSE
Wind: SSE 3 mph , 6 km/h
Temperature: 46°F , 8°C
Dew Point: 45°F , 7°C
Humidity: 93%
Barometer: 30.19 inHg , 1022.4 hPa
Clouds: Few Clouds
Visibility: 10 miles , 16 km
Cloud details: Few Clouds 7000 ft
2019/05/23 09:51 KMPV 230951Z AUTO 15003KT 10SM FEW070 08/07 A3019 RMK AO2 SLP225 T00830067
KASH - Nashua/Boire Fld, New Hampshire, USA
Distance from station: SE 59mi, 95km
Updated: 05/23/2019 5:56am
Overcast
Overcast
 Wind from calm
Wind: Calm
Temperature: 52°F , 11°C
Dew Point: 45°F , 7°C
Humidity: 77%
Barometer: 30.22 inHg , 1023.4 hPa
Clouds: Overcast
Visibility: 10 miles , 16 km
Cloud details: Overcast 9500 ft
2019/05/23 09:56 KASH 230956Z AUTO 00000KT 10SM OVC095 11/07 A3022 RMK AO2 SLP245 T01110067
KAQW - North Adams, Massachusetts, USA
Distance from station: SW 62mi, 99km
Updated: 05/23/2019 5:52am
Overcast
Overcast
 Wind from SE
Wind: SE 5 mph , 7 km/h
Temperature: 55°F , 13°C
Dew Point: 39°F , 4°C
Humidity: 55%
Barometer: 30.16 inHg , 1021.3 hPa
Clouds: Overcast
Visibility: 10 miles , 16 km
Cloud details: Overcast 6000 ft
2019/05/23 09:52 KAQW 230952Z AUTO 13004KT 10SM OVC060 13/04 A3016 RMK AO2 SLP214 T01330044
 
KGFL - Glens Falls, New York, USA
Distance from station: W 63mi, 101km
Updated: 05/23/2019 5:53am
Overcast
Overcast
 Wind from calm
Wind: Calm
Temperature: 54°F , 12°C
Dew Point: 50°F , 10°C
Humidity: 88%
Barometer: 30.12 inHg , 1020 hPa
Clouds: Overcast
Visibility: 10 miles , 16 km
Cloud details: Overcast 6000 ft
2019/05/23 09:53 KGFL 230953Z AUTO 00000KT 10SM OVC060 12/10 A3012 RMK AO2 SLP200 T01170100
KFIT - Fitchburg, Massachusetts, USA
Distance from station: SSE 65mi, 105km
Updated: 05/23/2019 5:52am
Overcast
Overcast
 Wind from S
Wind: S 6 mph , 9 km/h
Temperature: 54°F , 12°C
Dew Point: 45°F , 7°C
Humidity: 72%
Barometer: 30.22 inHg , 1023.4 hPa
Clouds: Overcast
Visibility: 10 miles , 16 km
Cloud details: Overcast 8500 ft
2019/05/23 09:52 KFIT 230952Z AUTO 18005KT 10SM OVC085 12/07 A3022 RMK AO2 SLP233 T01170067
KDAW - Rochester, New Hampshire, USA
Distance from station: E 73mi, 118km
Updated: 05/23/2019 5:51am
Overcast
Overcast
 Wind from calm
Wind: Calm
Temperature: 52°F , 11°C
Dew Point: 43°F , 6°C
Humidity: 72%
Barometer: 30.21 inHg , 1023 hPa
Clouds: Overcast
Visibility: 10 miles , 16 km
Cloud details: Overcast 9000 ft
2019/05/23 09:51 KDAW 230951Z AUTO 00000KT 10SM OVC090 11/06 A3021 RMK AO2 SLP228 T01060056
 
K1V4 - St. Johnsbury, Vermont, USA
Distance from station: NNE 74mi, 119km
Updated: 05/23/2019 5:54am

 
Temperature: 48°F , 9°C
Dew Point: 45°F , 7°C
Humidity: 87%
Barometer: 30.16 inHg , 1021.3 hPa
2019/05/23 09:54 K1V4 230954Z AUTO 09/07 A3016 RMK AO1 SLP209 T00940067 $
KLWM - Lawrence, Massachusetts, USA
Distance from station: SE 77mi, 124km
Updated: 05/23/2019 5:54am
Overcast
Overcast
 Wind from SSW
Wind: SSW 5 mph , 7 km/h
Temperature: 52°F , 11°C
Dew Point: 41°F , 5°C
Humidity: 67%
Barometer: 30.24 inHg , 1024 hPa
Clouds: Overcast
Visibility: 10 miles , 16 km
Cloud details: Mostly cloudy 9500 ft
Overcast 11000 ft
2019/05/23 09:54 KLWM 230954Z AUTO 20004KT 10SM BKN095 OVC110 11/05 A3024 RMK AO2 SLP239 T01110050



Flag Counter
free counter page views since 4/29/2009